Time;durP1;ratioP1;P1;durP2;ratioP2;P2;SDS_P1;SDS_P2;PMS_P1;PMS_P2;Temp;Humidity;BMP_temperature;BMP_pressure;BME280_temperature;BME280_humidity;BME280_pressure;Samples;Min_cycle;Max_cycle;Signal;HPM_P1;HPM_P2
2021/03/13 00:01:46;;;;;;;6.00;1.00;;;;;;;3.99;79.25;97743.84;4843391;29;20519;-48
2021/03/13 00:04:12;;;;;;;5.28;2.22;;;;;;;3.98;79.80;97745.00;4869290;29;20045;-49
2021/03/13 00:06:39;;;;;;;3.08;1.00;;;;;;;4.01;79.48;97752.47;4860817;29;20052;-51
2021/03/13 00:09:05;;;;;;;3.53;0.80;;;;;;;4.01;79.63;97755.22;4874321;29;20067;-50
2021/03/13 00:11:31;;;;;;;2.95;1.17;;;;;;;3.97;79.79;97754.38;4864809;29;21862;-52
2021/03/13 00:13:58;;;;;;;6.18;0.85;;;;;;;3.96;80.17;97760.22;4862429;29;20097;-52
2021/03/13 00:16:24;;;;;;;2.42;0.93;;;;;;;4.00;79.96;97759.09;4873784;29;20050;-54
2021/03/13 00:18:52;;;;;;;4.63;1.10;;;;;;;4.03;80.11;97763.84;4876248;29;20541;-52
2021/03/13 00:21:18;;;;;;;2.47;1.48;;;;;;;4.03;80.07;97752.88;4865624;29;20129;-50
2021/03/13 00:23:44;;;;;;;5.50;2.47;;;;;;;4.10;80.28;97761.16;4868656;29;20448;-50
2021/03/13 00:26:10;;;;;;;2.83;1.20;;;;;;;4.15;80.32;97771.00;4874331;29;20080;-50
2021/03/13 00:28:37;;;;;;;4.65;1.45;;;;;;;4.18;80.07;97759.31;4869003;29;20168;-56
2021/03/13 00:31:03;;;;;;;2.47;1.02;;;;;;;4.19;80.01;97767.13;4867076;29;20048;-54
2021/03/13 00:33:35;;;;;;;5.18;1.13;;;;;;;4.20;80.02;97752.28;4860565;29;20053;-56
2021/03/13 00:36:03;;;;;;;6.50;1.02;;;;;;;4.25;79.88;97762.13;4870200;29;20053;-49
2021/03/13 00:38:29;;;;;;;10.55;2.25;;;;;;;4.26;79.82;97763.69;4870231;29;20133;-50
2021/03/13 00:40:55;;;;;;;4.47;1.10;;;;;;;4.27;79.80;97766.03;4852624;29;20052;-56
2021/03/13 00:43:22;;;;;;;9.80;1.77;;;;;;;4.30;79.91;97762.56;4860399;29;20413;-51
2021/03/13 00:45:49;;;;;;;5.63;1.83;;;;;;;4.34;80.20;97768.09;4873447;29;20067;-54
2021/03/13 00:48:17;;;;;;;4.25;1.85;;;;;;;4.34;80.16;97772.78;4864787;29;20047;-50
2021/03/13 00:50:45;;;;;;;6.18;1.25;;;;;;;4.34;79.98;97750.84;4857452;29;20520;-55
2021/03/13 00:53:13;;;;;;;8.77;1.67;;;;;;;4.36;80.17;97776.69;4872250;29;20077;-56
2021/03/13 00:55:39;;;;;;;5.30;1.50;;;;;;;4.36;80.04;97760.28;4849476;29;20473;-53
2021/03/13 00:58:06;;;;;;;7.25;1.52;;;;;;;4.36;80.20;97764.97;4860465;29;20045;-52
2021/03/13 01:00:36;;;;;;;3.33;1.42;;;;;;;4.37;80.50;97777.50;4847000;29;20050;-51
2021/03/13 01:03:04;;;;;;;11.23;1.90;;;;;;;4.38;80.19;97790.81;4843045;29;20145;-52
2021/03/13 01:05:31;;;;;;;6.00;1.30;;;;;;;4.40;80.64;97795.88;4843069;29;20061;-54
2021/03/13 01:07:59;;;;;;;6.88;1.60;;;;;;;4.40;80.61;97790.41;4833265;29;20058;-49
2021/03/13 01:10:46;;;;;;;6.00;0.93;;;;;;;4.40;80.25;97779.47;4843847;29;20046;-52
2021/03/13 01:13:14;;;;;;;10.95;1.23;;;;;;;4.40;80.51;97787.66;4832907;29;20050;-50
2021/03/13 01:15:40;;;;;;;5.00;1.20;;;;;;;4.34;80.72;97805.63;4842872;29;20114;-53
2021/03/13 01:18:08;;;;;;;9.00;1.25;;;;;;;4.32;80.35;97797.78;4847385;29;20140;-53
2021/03/13 01:20:36;;;;;;;2.97;0.80;;;;;;;4.32;80.47;97798.56;4858864;29;20062;-54
2021/03/13 01:23:03;;;;;;;5.65;1.25;;;;;;;4.29;80.50;97795.78;4828662;29;20386;-50
2021/03/13 01:25:30;;;;;;;5.75;1.27;;;;;;;4.26;80.75;97800.06;4842308;29;20199;-51
2021/03/13 01:27:58;;;;;;;6.80;1.30;;;;;;;4.27;80.80;97796.16;4843835;29;20429;-50
2021/03/13 01:30:25;;;;;;;4.38;0.90;;;;;;;4.24;80.76;97810.59;4842844;29;20126;-48
2021/03/13 01:32:52;;;;;;;4.05;0.57;;;;;;;4.23;80.73;97806.31;4860392;29;20051;-53
2021/03/13 01:35:19;;;;;;;3.92;0.70;;;;;;;4.20;81.03;97812.53;4860598;29;20117;-51
2021/03/13 01:37:46;;;;;;;5.75;1.15;;;;;;;4.24;80.68;97813.34;4846742;29;20049;-54
2021/03/13 01:40:16;;;;;;;7.90;1.10;;;;;;;4.25;80.95;97806.72;4861066;29;20045;-51
2021/03/13 01:42:48;;;;;;;5.78;1.05;;;;;;;4.26;81.20;97815.72;4847632;29;20196;-49
2021/03/13 01:45:18;;;;;;;3.08;0.90;;;;;;;4.27;80.67;97815.34;4860634;29;20106;-52
2021/03/13 01:47:49;;;;;;;5.30;1.25;;;;;;;4.29;80.77;97826.69;4849936;29;20049;-51
2021/03/13 01:50:17;;;;;;;2.25;0.80;;;;;;;4.29;80.97;97825.91;4860779;29;20128;-52
2021/03/13 01:52:47;;;;;;;4.47;2.03;;;;;;;4.32;80.77;97831.44;4851125;29;20050;-53
2021/03/13 01:55:13;;;;;;;2.97;1.08;;;;;;;4.34;80.61;97833.81;4853437;29;20784;-55
2021/03/13 01:57:40;;;;;;;4.18;0.80;;;;;;;4.37;80.78;97844.00;4846821;29;20048;-49
2021/03/13 02:00:11;;;;;;;3.13;0.98;;;;;;;4.37;80.73;97840.50;4856701;29;20527;-50
2021/03/13 02:02:38;;;;;;;0.95;0.50;;;;;;;4.37;80.88;97835.78;4862846;29;20152;-54
2021/03/13 02:05:09;;;;;;;4.03;0.80;;;;;;;4.40;80.52;97853.41;4873889;29;20475;-55
2021/03/13 02:07:45;;;;;;;7.13;0.80;;;;;;;4.39;80.99;97847.16;4869001;29;20547;-49
2021/03/13 02:10:24;;;;;;;3.55;1.33;;;;;;;4.40;81.10;97853.41;4877415;29;20049;-54
2021/03/13 02:13:06;;;;;;;2.15;0.77;;;;;;;4.38;81.08;97850.25;4879177;29;20132;-52
2021/03/13 02:15:57;;;;;;;1.65;0.60;;;;;;;4.37;81.16;97865.13;4872173;29;20563;-53
2021/03/13 02:18:55;;;;;;;3.72;1.90;;;;;;;4.36;80.84;97869.03;4876449;29;20547;-55
2021/03/13 02:21:27;;;;;;;5.25;0.60;;;;;;;4.38;80.96;97866.69;4866454;29;20113;-51
2021/03/13 02:24:01;;;;;;;4.38;0.57;;;;;;;4.38;80.63;97872.97;4878808;29;20127;-50
2021/03/13 02:26:57;;;;;;;3.15;0.50;;;;;;;4.34;81.10;97877.63;4866600;29;20119;-52
2021/03/13 02:29:31;;;;;;;6.97;0.73;;;;;;;4.36;80.72;97877.25;4860149;29;20065;-55
2021/03/13 02:32:01;;;;;;;1.88;0.70;;;;;;;4.34;80.55;97883.09;4873736;29;20151;-52
2021/03/13 02:34:31;;;;;;;3.10;0.35;;;;;;;4.33;80.60;97881.53;4867402;29;20045;-49
2021/03/13 02:37:10;;;;;;;0.95;0.38;;;;;;;4.36;80.65;97885.47;4852705;29;20085;-52
2021/03/13 02:39:39;;;;;;;7.05;0.75;;;;;;;4.39;80.42;97891.00;4860432;29;20049;-50
2021/03/13 02:42:06;;;;;;;3.17;1.00;;;;;;;4.41;80.56;97883.19;4874369;29;20514;-55
2021/03/13 02:44:35;;;;;;;4.25;0.52;;;;;;;4.39;80.62;97893.72;4878404;29;20524;-53
2021/03/13 02:47:07;;;;;;;2.50;0.50;;;;;;;4.39;80.74;97912.91;4863845;29;20085;-52
2021/03/13 02:49:37;;;;;;;2.28;0.52;;;;;;;4.37;80.34;97903.47;4860670;29;20056;-51
2021/03/13 02:52:07;;;;;;;2.63;0.55;;;;;;;4.34;80.84;97915.97;4859603;29;20046;-54
2021/03/13 02:54:36;;;;;;;4.90;0.40;;;;;;;4.34;80.64;97905.03;4861527;29;20056;-50
2021/03/13 02:57:05;;;;;;;3.22;1.00;;;;;;;4.38;80.48;97916.00;4867100;29;20072;-51
2021/03/13 02:59:35;;;;;;;3.53;1.25;;;;;;;4.38;80.61;97907.78;4863399;29;20165;-52
2021/03/13 03:02:03;;;;;;;;;;;;;;;4.36;80.47;97902.69;4864593;29;20535;-56
2021/03/13 03:04:31;;;;;;;2.42;0.80;;;;;;;4.40;80.25;97921.88;4877152;29;20018;-52
2021/03/13 03:06:58;;;;;;;1.55;0.50;;;;;;;4.39;80.37;97928.53;4874193;29;20049;-53
2021/03/13 03:09:27;;;;;;;4.35;0.80;;;;;;;4.38;80.20;97926.94;4866952;29;20069;-50
2021/03/13 03:11:55;;;;;;;2.22;1.10;;;;;;;4.35;80.49;97924.94;4871516;29;20166;-55
2021/03/13 03:14:23;;;;;;;1.95;0.50;;;;;;;4.38;80.21;97935.16;4869343;29;20049;-53
2021/03/13 03:16:54;;;;;;;3.90;1.02;;;;;;;4.38;80.47;97943.38;4863838;29;20149;-51
2021/03/13 03:19:22;;;;;;;2.03;0.63;;;;;;;4.37;80.73;97952.78;4869330;29;20046;-53
2021/03/13 03:21:49;;;;;;;2.25;0.45;;;;;;;4.37;80.56;97947.31;4863979;29;20093;-53
2021/03/13 03:24:15;;;;;;;5.30;0.82;;;;;;;4.37;80.44;97958.25;4875529;29;20381;-49
2021/03/13 03:26:42;;;;;;;2.70;0.40;;;;;;;4.33;80.37;97963.69;4873388;29;20114;-56
2021/03/13 03:29:09;;;;;;;3.28;0.60;;;;;;;4.28;80.56;97967.53;4867035;29;20060;-50
2021/03/13 03:31:36;;;;;;;2.80;0.40;;;;;;;4.30;80.56;97984.38;4865673;29;20456;-49
2021/03/13 03:34:05;;;;;;;3.50;0.68;;;;;;;4.31;80.53;97977.72;4871914;29;20045;-53
2021/03/13 03:36:32;;;;;;;2.65;1.17;;;;;;;4.32;80.50;97986.75;4834582;29;20041;-53
2021/03/13 03:38:59;;;;;;;2.78;0.60;;;;;;;4.32;80.59;97984.78;4867516;29;20057;-50
2021/03/13 03:41:29;;;;;;;0.68;0.60;;;;;;;4.31;80.52;97993.41;4845892;29;20041;-52
2021/03/13 03:44:05;;;;;;;2.33;0.52;;;;;;;4.29;81.24;98001.97;4877715;29;20407;-55
2021/03/13 03:46:37;;;;;;;2.15;0.63;;;;;;;4.31;81.10;98009.81;4876051;29;20037;-54
2021/03/13 03:49:06;;;;;;;1.38;0.40;;;;;;;4.30;81.10;98008.25;4870992;29;20560;-53
2021/03/13 03:51:34;;;;;;;3.95;0.60;;;;;;;4.30;81.20;98017.25;4859117;29;20420;-53
2021/03/13 03:54:08;;;;;;;6.75;1.20;;;;;;;4.28;81.17;98033.28;4858868;29;20500;-54
2021/03/13 03:56:34;;;;;;;3.63;0.40;;;;;;;4.30;81.14;98052.06;4870486;29;20456;-52
2021/03/13 03:59:01;;;;;;;5.45;0.60;;;;;;;4.32;81.26;98047.78;4857951;29;20042;-54
2021/03/13 04:01:29;;;;;;;5.60;0.77;;;;;;;4.28;81.10;98060.66;4840418;29;20050;-54
2021/03/13 04:03:59;;;;;;;1.33;0.35;;;;;;;4.29;81.25;98062.22;4853034;29;20052;-52
2021/03/13 04:06:27;;;;;;;3.88;0.73;;;;;;;4.27;81.36;98080.19;4876197;29;20057;-49
2021/03/13 04:08:57;;;;;;;4.13;0.28;;;;;;;4.24;81.33;98086.38;4855727;29;20173;-54
2021/03/13 04:11:25;;;;;;;2.28;0.65;;;;;;;4.20;81.38;98091.03;4870922;29;20110;-51
2021/03/13 04:13:53;;;;;;;1.23;0.25;;;;;;;4.19;81.19;98098.44;4868896;29;20049;-51
2021/03/13 04:16:22;;;;;;;1.45;0.88;;;;;;;4.13;81.65;98099.91;4858441;29;20097;-54
2021/03/13 04:18:48;;;;;;;0.30;0.13;;;;;;;4.09;81.27;98107.28;4855816;29;20125;-50
2021/03/13 04:21:18;;;;;;;0.55;0.13;;;;;;;4.08;81.13;98107.63;4877441;29;20512;-52
2021/03/13 04:23:47;;;;;;;0.08;0.05;;;;;;;4.10;80.79;98128.00;4869548;29;20408;-52
2021/03/13 04:26:20;;;;;;;1.70;0.65;;;;;;;4.02;81.15;98140.03;4868845;29;20129;-50
2021/03/13 04:28:48;;;;;;;1.85;0.20;;;;;;;3.97;80.88;98154.00;4873690;29;20140;-50
2021/03/13 04:31:17;;;;;;;1.02;0.15;;;;;;;3.93;81.34;98158.63;4862043;29;20093;-55
2021/03/13 04:33:45;;;;;;;0.55;0.10;;;;;;;3.90;81.33;98175.78;4878072;29;20124;-50
2021/03/13 04:36:12;;;;;;;0.50;0.20;;;;;;;3.86;81.31;98196.81;4873491;29;20059;-55
2021/03/13 04:38:39;;;;;;;0.40;0.20;;;;;;;3.83;81.77;98189.34;4874292;29;20044;-55
2021/03/13 04:41:09;;;;;;;0.45;0.10;;;;;;;3.81;82.00;98199.06;4864679;29;20069;-50
2021/03/13 04:43:37;;;;;;;2.28;0.30;;;;;;;3.78;82.08;98189.63;4879689;29;20048;-53
2021/03/13 04:46:03;;;;;;;0.80;0.15;;;;;;;3.75;82.43;98214.97;4867314;29;20049;-50
2021/03/13 04:48:32;;;;;;;0.98;0.22;;;;;;;3.71;82.89;98225.06;4865582;29;20136;-50
2021/03/13 04:51:00;;;;;;;1.90;1.17;;;;;;;3.75;82.45;98234.13;4880442;29;20056;-56
2021/03/13 04:53:28;;;;;;;2.00;0.25;;;;;;;3.73;82.88;98236.44;4877419;29;20461;-52
2021/03/13 04:55:54;;;;;;;1.70;0.63;;;;;;;3.77;82.44;98248.25;4872560;29;20045;-52
2021/03/13 04:58:21;;;;;;;2.28;0.35;;;;;;;3.73;82.10;98263.81;4877332;29;20128;-56
2021/03/13 05:00:48;;;;;;;0.57;0.20;;;;;;;3.72;82.04;98267.69;4861668;29;20089;-54
2021/03/13 05:03:31;;;;;;;1.20;0.30;;;;;;;3.67;82.13;98271.50;4862849;29;20073;-54
2021/03/13 05:05:57;;;;;;;1.83;0.35;;;;;;;3.66;82.06;98280.06;4863494;29;20056;-54
2021/03/13 05:08:23;;;;;;;1.17;0.40;;;;;;;3.58;81.68;98286.53;4874427;29;20077;-54
2021/03/13 05:10:50;;;;;;;0.47;0.47;;;;;;;3.51;81.92;98300.88;4866867;29;20085;-54
2021/03/13 05:13:16;;;;;;;1.58;0.38;;;;;;;3.44;81.85;98305.41;4874271;29;20059;-51
2021/03/13 05:15:42;;;;;;;2.13;0.25;;;;;;;3.40;82.31;98310.78;4870720;29;20124;-51
2021/03/13 05:18:10;;;;;;;1.98;0.25;;;;;;;3.40;82.05;98327.19;4877290;29;20675;-50
2021/03/13 05:20:36;;;;;;;0.93;0.40;;;;;;;3.40;82.08;98329.13;4870730;29;20057;-54
2021/03/13 05:23:02;;;;;;;0.77;0.40;;;;;;;3.37;82.37;98338.03;4870315;29;20124;-54
2021/03/13 05:25:29;;;;;;;4.22;0.30;;;;;;;3.38;82.50;98345.09;4879105;29;20397;-50
2021/03/13 05:27:55;;;;;;;6.22;1.13;;;;;;;3.39;82.26;98350.22;4878926;29;20135;-51
2021/03/13 05:30:22;;;;;;;1.13;0.50;;;;;;;3.39;82.62;98372.09;4861310;29;20076;-51
2021/03/13 05:32:48;;;;;;;0.30;0.20;;;;;;;3.40;82.56;98375.63;4872856;29;20048;-54
2021/03/13 05:35:15;;;;;;;0.90;0.10;;;;;;;3.40;83.28;98387.34;4868506;29;20049;-51
2021/03/13 05:37:41;;;;;;;0.73;0.30;;;;;;;3.45;82.75;98391.75;4861052;29;20114;-51
2021/03/13 05:40:09;;;;;;;4.13;0.80;;;;;;;3.52;83.11;98391.94;4860236;29;20132;-51
2021/03/13 05:42:38;;;;;;;1.60;0.63;;;;;;;3.54;82.82;98395.91;4871311;29;20117;-51
2021/03/13 05:45:07;;;;;;;1.88;0.35;;;;;;;3.53;82.81;98396.25;4868025;29;20048;-57
2021/03/13 05:47:36;;;;;;;0.82;0.65;;;;;;;3.52;82.88;98402.88;4861854;29;20053;-54
2021/03/13 05:50:11;;;;;;;2.08;0.43;;;;;;;3.51;82.75;98401.28;4860627;29;20053;-55
2021/03/13 05:52:39;;;;;;;2.58;0.30;;;;;;;3.53;82.74;98412.66;4863220;29;20113;-54
2021/03/13 05:55:09;;;;;;;4.38;0.90;;;;;;;3.52;82.95;98435.72;4871108;29;20049;-55
2021/03/13 05:57:36;;;;;;;4.40;0.77;;;;;;;3.55;82.44;98434.97;4861936;29;20046;-54
2021/03/13 06:00:06;;;;;;;3.17;0.52;;;;;;;3.58;82.61;98440.53;4868841;29;20126;-56
2021/03/13 06:02:38;;;;;;;7.13;1.33;;;;;;;3.62;82.61;98446.09;4827696;29;20065;-54
2021/03/13 06:05:06;;;;;;;1.20;0.40;;;;;;;3.63;82.52;98455.88;4833150;29;20049;-54
2021/03/13 06:07:33;;;;;;;0.80;0.40;;;;;;;3.64;82.48;98463.75;4842111;29;20375;-50
2021/03/13 06:10:01;;;;;;;0.50;0.30;;;;;;;3.65;81.94;98448.13;4856084;29;20137;-51
2021/03/13 06:12:27;;;;;;;4.10;1.20;;;;;;;3.60;82.31;98451.91;4858335;29;20067;-54
2021/03/13 06:14:55;;;;;;;0.90;0.30;;;;;;;3.56;81.81;98466.66;4851309;29;20546;-55
2021/03/13 06:17:24;;;;;;;2.25;0.40;;;;;;;3.55;82.05;98471.34;4842400;29;20090;-55
2021/03/13 06:19:56;;;;;;;1.23;0.50;;;;;;;3.54;82.09;98464.28;4849670;29;20045;-52
2021/03/13 06:22:35;;;;;;;11.02;3.13;;;;;;;3.53;81.95;98476.38;4841566;29;20041;-54
2021/03/13 06:25:10;;;;;;;3.17;0.82;;;;;;;3.50;82.17;98490.75;4850439;29;20412;-52
2021/03/13 06:27:37;;;;;;;1.65;0.50;;;;;;;3.55;82.05;98497.88;4856474;29;20173;-51
2021/03/13 06:30:05;;;;;;;2.38;0.52;;;;;;;3.56;81.88;98502.22;4857576;29;20053;-54
2021/03/13 06:32:35;;;;;;;1.88;1.25;;;;;;;3.58;81.67;98502.66;4850681;29;20049;-56
2021/03/13 06:35:20;;;;;;;5.07;0.50;;;;;;;3.51;81.99;98516.16;4855325;29;20056;-52
2021/03/13 06:37:49;;;;;;;3.03;0.75;;;;;;;3.49;81.90;98515.75;4842606;29;20129;-59
2021/03/13 06:40:32;;;;;;;2.60;0.40;;;;;;;3.48;81.76;98514.13;4841426;29;20046;-53
2021/03/13 06:43:00;;;;;;;0.63;0.15;;;;;;;3.43;81.77;98522.59;4824877;29;20152;-52
2021/03/13 06:45:28;;;;;;;8.43;2.28;;;;;;;3.41;81.42;98524.91;4841541;29;20050;-54
2021/03/13 06:47:55;;;;;;;12.98;2.50;;;;;;;3.39;81.48;98538.16;4847306;29;20078;-52
2021/03/13 06:50:24;;;;;;;4.80;1.58;;;;;;;3.37;81.84;98540.41;4840775;29;20056;-53
2021/03/13 06:52:54;;;;;;;1.63;0.40;;;;;;;3.36;81.57;98555.25;4855461;29;20064;-55
2021/03/13 06:55:25;;;;;;;4.15;0.47;;;;;;;3.36;81.73;98552.53;4849124;29;20509;-53
2021/03/13 06:58:04;;;;;;;2.03;0.60;;;;;;;3.36;81.94;98563.47;4857182;29;20458;-52
2021/03/13 07:00:35;;;;;;;1.02;0.60;;;;;;;3.40;82.01;98558.84;4823339;29;20062;-56
2021/03/13 07:03:12;;;;;;;1.23;0.40;;;;;;;3.44;81.70;98568.75;4832432;29;20045;-53
2021/03/13 07:05:41;;;;;;;2.80;1.20;;;;;;;3.51;81.70;98582.63;4844651;29;20482;-54
2021/03/13 07:08:28;;;;;;;2.03;0.30;;;;;;;3.57;81.70;98585.91;4858784;29;20156;-54
2021/03/13 07:11:03;;;;;;;0.63;0.43;;;;;;;3.64;81.57;98586.06;4851899;29;20585;-56
2021/03/13 07:13:40;;;;;;;4.78;0.35;;;;;;;3.68;81.90;98601.44;4859582;29;20583;-53
2021/03/13 07:16:25;;;;;;;0.35;0.30;;;;;;;3.75;81.38;98598.09;4842732;29;20068;-54
2021/03/13 07:19:04;;;;;;;3.50;0.60;;;;;;;3.77;81.53;98600.47;4840792;29;20049;-54
2021/03/13 07:21:31;;;;;;;2.70;0.85;;;;;;;3.80;81.09;98597.03;4853953;29;20197;-53
2021/03/13 07:24:07;;;;;;;0.70;0.30;;;;;;;3.75;80.71;98597.28;4842336;29;20429;-53
2021/03/13 07:26:37;;;;;;;2.17;0.40;;;;;;;3.71;80.98;98599.94;4859030;29;20087;-56
2021/03/13 07:29:05;;;;;;;6.18;0.50;;;;;;;3.70;80.67;98603.81;4855547;29;20133;-51
2021/03/13 07:31:35;;;;;;;4.10;0.50;;;;;;;3.66;80.86;98611.13;4850093;29;20050;-52
2021/03/13 07:34:05;;;;;;;0.90;0.50;;;;;;;3.66;80.85;98611.94;4858485;29;20037;-53
2021/03/13 07:36:36;;;;;;;3.15;0.38;;;;;;;3.65;80.53;98624.00;4859216;29;20046;-52
2021/03/13 07:39:10;;;;;;;2.63;0.45;;;;;;;3.67;80.83;98631.88;4852618;29;20125;-51
2021/03/13 07:41:37;;;;;;;2.60;0.40;;;;;;;3.71;80.54;98632.75;4852739;29;20133;-49
2021/03/13 07:44:05;;;;;;;1.90;0.50;;;;;;;3.74;80.23;98653.16;4846316;29;20058;-54
2021/03/13 07:46:33;;;;;;;4.93;0.47;;;;;;;3.75;80.18;98657.50;4859238;29;20520;-53
2021/03/13 07:48:59;;;;;;;1.35;0.40;;;;;;;3.82;80.60;98654.94;4853773;29;20053;-51
2021/03/13 07:51:27;;;;;;;2.92;0.55;;;;;;;3.90;80.18;98668.47;4858897;29;20045;-52
2021/03/13 07:53:53;;;;;;;3.22;0.82;;;;;;;3.92;79.78;98657.94;4852100;29;20094;-55
2021/03/13 07:56:21;;;;;;;3.20;0.65;;;;;;;3.95;79.73;98672.88;4840431;29;20046;-49
2021/03/13 07:58:47;;;;;;;1.70;0.60;;;;;;;3.99;80.15;98684.72;4842140;29;20054;-54
2021/03/13 08:01:14;;;;;;;3.75;0.57;;;;;;;4.02;79.64;98679.34;4867564;29;20104;-51
2021/03/13 08:03:43;;;;;;;1.60;0.40;;;;;;;4.04;79.74;98685.25;4866317;29;20055;-53
2021/03/13 08:06:14;;;;;;;3.38;0.50;;;;;;;4.04;79.31;98688.00;4862673;29;20041;-50
2021/03/13 08:08:46;;;;;;;0.80;0.40;;;;;;;3.99;79.23;98699.22;4875825;29;20100;-50
2021/03/13 08:11:14;;;;;;;3.38;0.70;;;;;;;3.92;79.30;98695.50;4875125;29;20045;-50
2021/03/13 08:13:50;;;;;;;1.55;1.00;;;;;;;3.88;79.62;98703.59;4873145;29;20050;-54
2021/03/13 08:16:36;;;;;;;4.60;0.80;;;;;;;3.85;79.16;98714.44;4872210;29;20053;-51
2021/03/13 08:19:23;;;;;;;7.25;0.55;;;;;;;3.86;79.23;98722.31;4880212;29;20095;-52
2021/03/13 08:21:50;;;;;;;3.67;0.55;;;;;;;3.95;79.66;98722.94;4869761;29;20077;-54
2021/03/13 08:24:50;;;;;;;3.28;0.52;;;;;;;4.03;78.97;98713.78;4863814;29;20048;-50
2021/03/13 08:27:38;;;;;;;3.83;0.70;;;;;;;4.04;78.90;98723.59;4867841;29;20121;-50
2021/03/13 08:30:22;;;;;;;3.53;0.55;;;;;;;4.09;78.58;98731.56;4862991;29;20057;-53
2021/03/13 08:33:03;;;;;;;5.00;0.88;;;;;;;4.15;78.64;98721.94;4865715;29;20113;-51
2021/03/13 08:35:33;;;;;;;1.27;0.32;;;;;;;4.26;78.49;98742.16;4860643;29;20059;-51
2021/03/13 08:38:00;;;;;;;2.42;0.70;;;;;;;4.46;78.73;98745.81;4866296;29;20057;-56
2021/03/13 08:40:27;;;;;;;1.38;0.40;;;;;;;4.58;77.71;98753.16;4862180;29;20136;-52
2021/03/13 08:42:54;;;;;;;3.30;0.43;;;;;;;4.53;76.79;98761.59;4866625;29;20077;-50
2021/03/13 08:45:32;;;;;;;3.92;0.70;;;;;;;4.50;77.42;98762.34;4880150;29;20105;-56
2021/03/13 08:47:58;;;;;;;3.10;1.20;;;;;;;4.48;77.45;98756.41;4862781;29;20132;-52
2021/03/13 08:50:43;;;;;;;10.10;1.90;;;;;;;4.43;76.46;98770.38;4859142;29;20045;-51
2021/03/13 08:53:30;;;;;;;2.67;0.50;;;;;;;4.40;76.45;98768.31;4853460;29;20093;-53
2021/03/13 08:55:57;;;;;;;2.40;0.88;;;;;;;4.38;76.93;98785.13;4861549;29;20098;-49
2021/03/13 08:58:42;;;;;;;1.27;0.63;;;;;;;4.42;76.51;98793.44;4865581;29;20045;-53
2021/03/13 09:01:19;;;;;;;6.60;2.25;;;;;;;4.44;76.54;98796.63;4861341;29;20077;-50
2021/03/13 09:03:51;;;;;;;9.38;1.15;;;;;;;4.39;76.58;98796.88;4865849;29;20045;-52
2021/03/13 09:06:29;;;;;;;7.50;1.30;;;;;;;4.45;76.82;98798.22;4861511;29;20056;-53
2021/03/13 09:09:13;;;;;;;6.70;1.02;;;;;;;4.49;75.82;98805.38;4861698;29;20492;-50
2021/03/13 09:11:41;;;;;;;1.77;0.60;;;;;;;4.55;76.47;98803.19;4872599;29;20059;-53
2021/03/13 09:14:08;;;;;;;3.65;0.60;;;;;;;4.60;75.88;98794.69;4867260;29;20101;-50
2021/03/13 09:16:37;;;;;;;1.67;0.50;;;;;;;4.65;75.90;98795.22;4868512;29;20473;-56
2021/03/13 09:19:06;;;;;;;6.97;0.88;;;;;;;4.73;75.92;98809.91;4846444;29;20061;-53
2021/03/13 09:21:46;;;;;;;3.42;0.98;;;;;;;4.84;75.31;98808.22;4842994;29;20090;-53
2021/03/13 09:24:16;;;;;;;9.00;1.00;;;;;;;4.98;74.99;98818.75;4839489;29;20085;-55
2021/03/13 09:26:42;;;;;;;4.10;0.77;;;;;;;5.12;75.31;98822.63;4853392;29;20588;-51
2021/03/13 09:29:09;;;;;;;3.35;0.80;;;;;;;5.30;74.72;98851.25;4867492;29;20088;-54
2021/03/13 09:31:35;;;;;;;1.55;0.52;;;;;;;5.36;73.97;98838.06;4864374;29;20084;-55
2021/03/13 09:34:19;;;;;;;6.25;1.38;;;;;;;5.38;72.87;98847.53;4852952;29;20415;-55
2021/03/13 09:37:10;;;;;;;4.00;0.70;;;;;;;5.33;73.34;98850.56;4864154;29;20123;-56
2021/03/13 09:39:37;;;;;;;3.58;1.05;;;;;;;5.23;73.19;98853.84;4853504;29;20110;-56
2021/03/13 09:42:08;;;;;;;5.15;0.60;;;;;;;5.30;74.14;98861.44;4841925;29;20117;-52
2021/03/13 09:44:37;;;;;;;3.50;0.70;;;;;;;5.37;74.15;98862.41;4861180;29;20055;-51
2021/03/13 09:47:14;;;;;;;5.88;1.48;;;;;;;5.45;73.50;98875.13;4872432;29;20053;-50
2021/03/13 09:49:55;;;;;;;4.72;1.00;;;;;;;5.46;72.14;98875.94;4867542;29;20037;-53
2021/03/13 09:52:25;;;;;;;6.38;1.58;;;;;;;5.54;74.00;98888.66;4859365;29;20117;-53
2021/03/13 09:55:14;;;;;;;2.78;0.52;;;;;;;5.73;72.76;98888.72;4858297;29;20449;-56
2021/03/13 09:57:43;;;;;;;2.83;1.42;;;;;;;5.94;74.78;98888.41;4867256;29;20041;-53
2021/03/13 10:00:31;;;;;;;7.28;0.77;;;;;;;6.26;74.49;98906.38;4854044;29;20134;-50
2021/03/13 10:02:59;;;;;;;3.15;0.80;;;;;;;6.57;73.57;98897.97;4853657;29;20130;-50
2021/03/13 10:05:29;;;;;;;4.55;0.70;;;;;;;6.48;69.53;98910.38;4857553;29;20409;-47
2021/03/13 10:07:55;;;;;;;3.03;0.93;;;;;;;6.36;70.53;98918.75;4865210;29;20050;-49
2021/03/13 10:10:23;;;;;;;6.78;1.40;;;;;;;6.57;70.17;98900.72;4858481;29;20488;-49
2021/03/13 10:12:55;;;;;;;6.65;0.93;;;;;;;6.72;70.00;98894.31;4854535;29;20862;-50
2021/03/13 10:15:26;;;;;;;3.80;0.77;;;;;;;7.06;69.87;98897.31;4862200;29;20136;-50
2021/03/13 10:17:55;;;;;;;4.75;0.85;;;;;;;7.32;69.82;98911.13;4873793;29;20571;-52
2021/03/13 10:20:24;;;;;;;3.42;0.80;;;;;;;7.72;69.18;98903.13;4850421;29;20056;-48
2021/03/13 10:22:51;;;;;;;3.85;1.13;;;;;;;8.17;68.80;98907.69;4872265;29;20045;-50
2021/03/13 10:25:18;;;;;;;4.68;1.08;;;;;;;8.51;67.48;98905.78;4876171;29;20061;-53
2021/03/13 10:27:44;;;;;;;7.57;1.45;;;;;;;8.89;66.82;98904.63;4854223;29;20454;-52
2021/03/13 10:30:12;;;;;;;4.80;0.90;;;;;;;9.12;65.43;98903.28;4839680;29;20054;-54
2021/03/13 10:32:40;;;;;;;3.47;1.40;;;;;;;9.24;63.80;98901.44;4865487;29;20060;-49
2021/03/13 10:35:21;;;;;;;5.20;0.80;;;;;;;9.45;62.91;98887.78;4858276;29;20140;-52
2021/03/13 10:37:56;;;;;;;4.65;1.05;;;;;;;9.70;62.12;98897.03;4862971;29;20088;-52
2021/03/13 10:40:44;;;;;;;4.38;1.10;;;;;;;9.93;59.89;98894.81;4874609;29;20143;-50
2021/03/13 10:43:35;;;;;;;5.07;1.55;;;;;;;10.22;58.43;98899.38;4841420;29;20370;-51
2021/03/13 10:46:01;;;;;;;4.47;0.80;;;;;;;10.49;60.71;98894.34;4856824;29;20133;-52
2021/03/13 10:48:34;;;;;;;2.80;0.60;;;;;;;10.62;60.01;98890.06;4860652;29;20052;-53
2021/03/13 10:51:02;;;;;;;1.83;0.68;;;;;;;10.62;59.27;98900.31;4854569;29;20497;-51
2021/03/13 10:53:30;;;;;;;1.92;0.63;;;;;;;10.64;58.85;98903.50;4857989;29;20058;-50
2021/03/13 10:56:09;;;;;;;3.28;0.90;;;;;;;10.38;57.96;98891.53;4874156;29;20049;-53
2021/03/13 10:58:39;;;;;;;3.03;0.93;;;;;;;10.27;58.43;98909.28;4864846;29;20052;-53
2021/03/13 11:01:07;;;;;;;4.28;0.60;;;;;;;10.07;58.12;98897.69;4856071;29;20046;-51
2021/03/13 11:03:34;;;;;;;4.20;0.90;;;;;;;9.90;57.74;98892.81;4850302;29;20056;-53
2021/03/13 11:06:00;;;;;;;5.32;0.80;;;;;;;9.73;57.74;98888.78;4838022;29;20106;-50
2021/03/13 11:08:30;;;;;;;3.70;1.52;;;;;;;9.53;57.78;98900.50;4843729;29;20081;-51
2021/03/13 11:10:58;;;;;;;4.72;1.30;;;;;;;9.15;57.42;98891.50;4847432;29;20064;-53
2021/03/13 11:13:25;;;;;;;4.00;1.17;;;;;;;9.07;58.02;98906.41;4852655;29;20053;-52
2021/03/13 11:15:52;;;;;;;6.03;1.58;;;;;;;9.10;58.46;98904.84;4840189;29;20057;-50
2021/03/13 11:18:19;;;;;;;7.82;1.13;;;;;;;8.91;58.46;98905.84;4838740;29;20401;-53
2021/03/13 11:20:46;;;;;;;3.95;1.15;;;;;;;8.54;58.32;98911.34;4841269;29;20054;-47
2021/03/13 11:23:13;;;;;;;5.07;1.27;;;;;;;8.23;59.53;98913.66;4838147;29;20129;-47
2021/03/13 11:25:40;;;;;;;7.25;1.80;;;;;;;8.05;60.25;98915.41;4838569;29;20046;-51
2021/03/13 11:28:07;;;;;;;8.43;3.20;;;;;;;7.77;60.42;98915.78;4838131;29;20137;-49
2021/03/13 11:30:35;;;;;;;5.28;1.40;;;;;;;7.55;61.16;98906.38;4843436;29;20057;-49
2021/03/13 11:33:02;;;;;;;7.93;1.77;;;;;;;7.30;61.44;98913.44;4846358;29;20057;-51
2021/03/13 11:35:31;;;;;;;3.80;1.02;;;;;;;7.08;61.95;98911.50;4845711;29;20523;-50
2021/03/13 11:37:58;;;;;;;6.50;1.50;;;;;;;7.00;62.58;98910.56;4837445;29;20054;-51
2021/03/13 11:40:24;;;;;;;4.63;1.10;;;;;;;7.06;63.21;98930.31;4837624;29;20058;-50
2021/03/13 11:42:55;;;;;;;6.47;1.45;;;;;;;6.98;63.13;98932.16;4853717;29;20054;-52
2021/03/13 11:45:22;;;;;;;7.82;1.15;;;;;;;6.93;62.95;98931.66;4856903;29;20137;-49
2021/03/13 11:47:49;;;;;;;12.45;2.22;;;;;;;6.89;63.54;98931.59;4856702;29;20148;-49
2021/03/13 11:50:19;;;;;;;6.53;1.38;;;;;;;6.96;63.67;98930.94;4843774;29;20497;-55
2021/03/13 11:52:45;;;;;;;5.93;1.27;;;;;;;7.02;63.64;98929.44;4840677;29;20064;-51
2021/03/13 11:55:12;;;;;;;7.95;1.73;;;;;;;7.02;63.09;98934.94;4845237;29;20049;-48
2021/03/13 11:57:39;;;;;;;6.68;2.00;;;;;;;6.94;63.12;98923.03;4847668;29;20077;-48